sensor_id;sensor_type;location;lat;lon;timestamp;pressure;altitude;pressure_sealevel;temperature;humidity
72061;BME280;59925;52.136;5.420;2023-06-14T00:00:02;101646.66;;;18.01;47.19
72061;BME280;59925;52.136;5.420;2023-06-14T00:02:30;101648.34;;;17.97;47.63
72061;BME280;59925;52.136;5.420;2023-06-14T00:04:57;101659.50;;;17.95;47.36
72061;BME280;59925;52.136;5.420;2023-06-14T00:07:39;101654.69;;;17.92;47.51
72061;BME280;59925;52.136;5.420;2023-06-14T00:10:11;101652.06;;;17.87;47.54
72061;BME280;59925;52.136;5.420;2023-06-14T00:12:38;101655.06;;;17.85;47.59
72061;BME280;59925;52.136;5.420;2023-06-14T00:15:05;101659.41;;;17.86;47.81
72061;BME280;59925;52.136;5.420;2023-06-14T00:17:32;101654.56;;;17.83;47.70
72061;BME280;59925;52.136;5.420;2023-06-14T00:20:02;101652.94;;;17.82;47.68
72061;BME280;59925;52.136;5.420;2023-06-14T00:22:31;101659.47;;;17.81;47.89
72061;BME280;59925;52.136;5.420;2023-06-14T00:24:58;101655.16;;;17.80;47.87
72061;BME280;59925;52.136;5.420;2023-06-14T00:27:25;101654.94;;;17.76;47.99
72061;BME280;59925;52.136;5.420;2023-06-14T00:29:52;101664.47;;;17.74;47.69
72061;BME280;59925;52.136;5.420;2023-06-14T00:32:18;101670.13;;;17.77;47.56
72061;BME280;59925;52.136;5.420;2023-06-14T00:34:45;101660.88;;;17.79;47.59
72061;BME280;59925;52.136;5.420;2023-06-14T00:37:12;101662.28;;;17.76;47.56
72061;BME280;59925;52.136;5.420;2023-06-14T00:39:38;101663.69;;;17.73;47.68
72061;BME280;59925;52.136;5.420;2023-06-14T00:42:05;101658.56;;;17.72;47.85
72061;BME280;59925;52.136;5.420;2023-06-14T00:44:32;101663.47;;;17.70;47.86
72061;BME280;59925;52.136;5.420;2023-06-14T00:46:58;101659.44;;;17.67;47.38
72061;BME280;59925;52.136;5.420;2023-06-14T00:49:25;101662.97;;;17.68;47.34
72061;BME280;59925;52.136;5.420;2023-06-14T00:51:52;101652.44;;;17.66;47.67
72061;BME280;59925;52.136;5.420;2023-06-14T00:54:18;101662.25;;;17.62;47.63
72061;BME280;59925;52.136;5.420;2023-06-14T00:56:45;101656.09;;;17.56;47.50
72061;BME280;59925;52.136;5.420;2023-06-14T00:59:12;101656.38;;;17.55;47.91
72061;BME280;59925;52.136;5.420;2023-06-14T01:01:38;101661.31;;;17.53;47.73
72061;BME280;59925;52.136;5.420;2023-06-14T01:04:05;101658.38;;;17.49;48.29
72061;BME280;59925;52.136;5.420;2023-06-14T01:06:57;101661.97;;;17.44;48.29
72061;BME280;59925;52.136;5.420;2023-06-14T01:12:41;101659.66;;;17.38;48.09
72061;BME280;59925;52.136;5.420;2023-06-14T01:15:12;101669.97;;;17.36;48.70
72061;BME280;59925;52.136;5.420;2023-06-14T01:17:39;101662.47;;;17.33;48.78
72061;BME280;59925;52.136;5.420;2023-06-14T01:20:11;101666.53;;;17.30;49.30
72061;BME280;59925;52.136;5.420;2023-06-14T01:22:53;101656.00;;;17.28;48.56
72061;BME280;59925;52.136;5.420;2023-06-14T01:25:21;101653.09;;;17.25;48.95
72061;BME280;59925;52.136;5.420;2023-06-14T01:28:09;101662.09;;;17.20;48.71
72061;BME280;59925;52.136;5.420;2023-06-14T01:30:39;101661.28;;;17.20;48.59
72061;BME280;59925;52.136;5.420;2023-06-14T01:33:08;101655.66;;;17.16;48.79
72061;BME280;59925;52.136;5.420;2023-06-14T01:35:36;101652.75;;;17.12;49.21
72061;BME280;59925;52.136;5.420;2023-06-14T01:38:03;101653.91;;;17.06;49.40
72061;BME280;59925;52.136;5.420;2023-06-14T01:40:31;101658.00;;;17.04;48.88
72061;BME280;59925;52.136;5.420;2023-06-14T01:42:59;101661.50;;;17.04;48.92
72061;BME280;59925;52.136;5.420;2023-06-14T01:45:25;101668.03;;;17.03;49.10
72061;BME280;59925;52.136;5.420;2023-06-14T01:47:53;101665.69;;;16.96;49.30
72061;BME280;59925;52.136;5.420;2023-06-14T01:50:20;101660.56;;;16.95;49.51
72061;BME280;59925;52.136;5.420;2023-06-14T01:52:47;101661.94;;;16.92;49.46
72061;BME280;59925;52.136;5.420;2023-06-14T01:55:13;101664.13;;;16.90;49.34
72061;BME280;59925;52.136;5.420;2023-06-14T01:57:40;101667.94;;;16.89;49.28
72061;BME280;59925;52.136;5.420;2023-06-14T02:00:08;101660.38;;;16.86;49.29
72061;BME280;59925;52.136;5.420;2023-06-14T02:02:37;101666.91;;;16.85;49.10
72061;BME280;59925;52.136;5.420;2023-06-14T02:05:04;101669.97;;;16.78;49.61
72061;BME280;59925;52.136;5.420;2023-06-14T02:07:30;101673.25;;;16.75;49.51
72061;BME280;59925;52.136;5.420;2023-06-14T02:09:57;101665.41;;;16.74;49.72
72061;BME280;59925;52.136;5.420;2023-06-14T02:12:23;101675.22;;;16.69;49.39
72061;BME280;59925;52.136;5.420;2023-06-14T02:14:50;101665.78;;;16.67;49.55
72061;BME280;59925;52.136;5.420;2023-06-14T02:17:16;101664.22;;;16.61;49.59
72061;BME280;59925;52.136;5.420;2023-06-14T02:19:43;101668.91;;;16.55;49.65
72061;BME280;59925;52.136;5.420;2023-06-14T02:22:09;101663.56;;;16.50;49.85
72061;BME280;59925;52.136;5.420;2023-06-14T02:24:36;101666.53;;;16.48;49.85
72061;BME280;59925;52.136;5.420;2023-06-14T02:27:03;101668.50;;;16.43;50.27
72061;BME280;59925;52.136;5.420;2023-06-14T02:29:29;101665.06;;;16.37;50.30
72061;BME280;59925;52.136;5.420;2023-06-14T02:31:56;101668.63;;;16.32;50.42
72061;BME280;59925;52.136;5.420;2023-06-14T02:34:23;101661.69;;;16.26;50.41
72061;BME280;59925;52.136;5.420;2023-06-14T02:36:49;101668.75;;;16.22;49.87
72061;BME280;59925;52.136;5.420;2023-06-14T02:39:16;101673.63;;;16.20;50.63
72061;BME280;59925;52.136;5.420;2023-06-14T02:41:44;101670.47;;;16.13;50.86
72061;BME280;59925;52.136;5.420;2023-06-14T02:44:10;101667.25;;;16.11;51.09
72061;BME280;59925;52.136;5.420;2023-06-14T02:46:39;101678.94;;;16.06;51.10
72061;BME280;59925;52.136;5.420;2023-06-14T02:49:05;101682.22;;;15.98;51.88
72061;BME280;59925;52.136;5.420;2023-06-14T02:51:32;101683.44;;;15.86;52.17
72061;BME280;59925;52.136;5.420;2023-06-14T02:53:59;101686.44;;;15.85;52.45
72061;BME280;59925;52.136;5.420;2023-06-14T02:56:25;101678.09;;;15.76;52.94
72061;BME280;59925;52.136;5.420;2023-06-14T02:58:52;101681.13;;;15.69;52.76
72061;BME280;59925;52.136;5.420;2023-06-14T03:01:19;101695.72;;;15.68;53.00
72061;BME280;59925;52.136;5.420;2023-06-14T03:03:47;101693.03;;;15.63;52.90
72061;BME280;59925;52.136;5.420;2023-06-14T03:06:14;101695.25;;;15.61;52.72
72061;BME280;59925;52.136;5.420;2023-06-14T03:08:42;101692.81;;;15.59;52.56
72061;BME280;59925;52.136;5.420;2023-06-14T03:11:10;101693.09;;;15.58;52.47
72061;BME280;59925;52.136;5.420;2023-06-14T03:13:36;101697.97;;;15.56;52.84
72061;BME280;59925;52.136;5.420;2023-06-14T03:16:03;101701.81;;;15.50;53.21
72061;BME280;59925;52.136;5.420;2023-06-14T03:18:31;101704.25;;;15.46;53.10
72061;BME280;59925;52.136;5.420;2023-06-14T03:21:02;101712.66;;;15.44;52.94
72061;BME280;59925;52.136;5.420;2023-06-14T03:23:29;101714.84;;;15.42;53.24
72061;BME280;59925;52.136;5.420;2023-06-14T03:25:56;101712.69;;;15.39;52.98
72061;BME280;59925;52.136;5.420;2023-06-14T03:28:23;101707.56;;;15.38;53.69
72061;BME280;59925;52.136;5.420;2023-06-14T03:30:49;101705.13;;;15.36;53.51
72061;BME280;59925;52.136;5.420;2023-06-14T03:33:16;101713.81;;;15.33;53.32
72061;BME280;59925;52.136;5.420;2023-06-14T03:35:43;101713.28;;;15.31;53.52
72061;BME280;59925;52.136;5.420;2023-06-14T03:38:10;101716.00;;;15.26;53.92
72061;BME280;59925;52.136;5.420;2023-06-14T03:40:37;101715.78;;;15.22;53.94
72061;BME280;59925;52.136;5.420;2023-06-14T03:43:03;101714.16;;;15.21;54.24
72061;BME280;59925;52.136;5.420;2023-06-14T03:45:30;101717.69;;;15.16;54.15
72061;BME280;59925;52.136;5.420;2023-06-14T03:47:56;101717.97;;;15.15;54.00
72061;BME280;59925;52.136;5.420;2023-06-14T03:50:23;101718.78;;;15.15;54.52
72061;BME280;59925;52.136;5.420;2023-06-14T03:52:50;101724.47;;;15.14;54.40
72061;BME280;59925;52.136;5.420;2023-06-14T03:55:16;101729.03;;;15.13;54.55
72061;BME280;59925;52.136;5.420;2023-06-14T03:57:46;101725.81;;;15.11;54.53
72061;BME280;59925;52.136;5.420;2023-06-14T04:00:13;101727.44;;;15.12;54.06
72061;BME280;59925;52.136;5.420;2023-06-14T04:02:39;101733.13;;;15.11;54.99
72061;BME280;59925;52.136;5.420;2023-06-14T04:05:06;101729.59;;;15.10;55.28
72061;BME280;59925;52.136;5.420;2023-06-14T04:07:35;101735.81;;;15.11;55.51
72061;BME280;59925;52.136;5.420;2023-06-14T04:10:07;101744.72;;;15.11;55.50
72061;BME280;59925;52.136;5.420;2023-06-14T04:12:34;101748.50;;;15.10;55.40
72061;BME280;59925;52.136;5.420;2023-06-14T04:15:01;101745.28;;;15.08;56.01
72061;BME280;59925;52.136;5.420;2023-06-14T04:17:45;101757.44;;;15.11;55.91
72061;BME280;59925;52.136;5.420;2023-06-14T04:20:12;101748.25;;;15.12;55.28
72061;BME280;59925;52.136;5.420;2023-06-14T04:22:38;101756.59;;;15.10;55.48
72061;BME280;59925;52.136;5.420;2023-06-14T04:25:05;101747.72;;;15.10;55.87
72061;BME280;59925;52.136;5.420;2023-06-14T04:27:32;101756.59;;;15.15;55.68
72061;BME280;59925;52.136;5.420;2023-06-14T04:30:02;101756.59;;;15.15;56.24
72061;BME280;59925;52.136;5.420;2023-06-14T04:32:29;101752.81;;;15.16;56.53
72061;BME280;59925;52.136;5.420;2023-06-14T04:35:00;101752.81;;;15.16;56.43
72061;BME280;59925;52.136;5.420;2023-06-14T04:37:28;101753.34;;;15.19;56.08
72061;BME280;59925;52.136;5.420;2023-06-14T04:39:56;101758.19;;;15.22;56.22
72061;BME280;59925;52.136;5.420;2023-06-14T04:42:24;101756.00;;;15.24;56.44
72061;BME280;59925;52.136;5.420;2023-06-14T04:44:51;101758.44;;;15.25;56.39
72061;BME280;59925;52.136;5.420;2023-06-14T04:47:22;101766.25;;;15.27;56.77
72061;BME280;59925;52.136;5.420;2023-06-14T04:49:51;101776.50;;;15.30;56.71
72061;BME280;59925;52.136;5.420;2023-06-14T04:52:19;101775.13;;;15.32;56.22
72061;BME280;59925;52.136;5.420;2023-06-14T04:54:47;101769.97;;;15.36;56.47
72061;BME280;59925;52.136;5.420;2023-06-14T04:57:14;101776.19;;;15.37;56.35
72061;BME280;59925;52.136;5.420;2023-06-14T04:59:43;101771.34;;;15.39;56.00
72061;BME280;59925;52.136;5.420;2023-06-14T05:02:11;101780.22;;;15.44;56.27
72061;BME280;59925;52.136;5.420;2023-06-14T05:04:38;101777.75;;;15.48;56.97
72061;BME280;59925;52.136;5.420;2023-06-14T05:07:09;101774.75;;;15.50;57.06
72061;BME280;59925;52.136;5.420;2023-06-14T05:09:36;101767.41;;;15.60;56.93
72061;BME280;59925;52.136;5.420;2023-06-14T05:12:03;101775.16;;;16.12;56.63
72061;BME280;59925;52.136;5.420;2023-06-14T05:14:30;101779.59;;;16.57;55.75
72061;BME280;59925;52.136;5.420;2023-06-14T05:16:57;101769.59;;;17.06;54.44
72061;BME280;59925;52.136;5.420;2023-06-14T05:19:23;101778.22;;;16.83;54.22
72061;BME280;59925;52.136;5.420;2023-06-14T05:21:50;101783.63;;;16.59;54.73
72061;BME280;59925;52.136;5.420;2023-06-14T05:24:17;101784.53;;;16.49;55.16
72061;BME280;59925;52.136;5.420;2023-06-14T05:26:44;101783.25;;;16.42;55.06
72061;BME280;59925;52.136;5.420;2023-06-14T05:29:11;101780.84;;;16.40;54.99
72061;BME280;59925;52.136;5.420;2023-06-14T05:31:38;101779.31;;;16.58;55.56
72061;BME280;59925;52.136;5.420;2023-06-14T05:34:05;101773.06;;;17.50;54.70
72061;BME280;59925;52.136;5.420;2023-06-14T05:36:31;101780.34;;;17.68;53.44
72061;BME280;59925;52.136;5.420;2023-06-14T05:38:58;101784.03;;;17.77;53.55
72061;BME280;59925;52.136;5.420;2023-06-14T05:41:27;101784.03;;;18.99;53.32
72061;BME280;59925;52.136;5.420;2023-06-14T05:43:54;101793.53;;;21.02;48.64
72061;BME280;59925;52.136;5.420;2023-06-14T05:46:22;101779.28;;;22.40;45.17
72061;BME280;59925;52.136;5.420;2023-06-14T05:48:51;101785.88;;;23.50;42.50
72061;BME280;59925;52.136;5.420;2023-06-14T05:51:18;101785.03;;;23.92;40.57
72061;BME280;59925;52.136;5.420;2023-06-14T05:53:48;101791.09;;;24.56;39.63
72061;BME280;59925;52.136;5.420;2023-06-14T05:56:15;101796.69;;;25.38;37.81
72061;BME280;59925;52.136;5.420;2023-06-14T05:58:45;101793.53;;;25.93;36.99
72061;BME280;59925;52.136;5.420;2023-06-14T06:01:11;101795.75;;;26.03;35.75
72061;BME280;59925;52.136;5.420;2023-06-14T06:03:39;101803.47;;;26.13;35.79
72061;BME280;59925;52.136;5.420;2023-06-14T06:06:06;101802.06;;;26.36;34.72
72061;BME280;59925;52.136;5.420;2023-06-14T06:08:34;101809.03;;;26.01;34.29
72061;BME280;59925;52.136;5.420;2023-06-14T06:11:01;101800.22;;;26.40;34.97
72061;BME280;59925;52.136;5.420;2023-06-14T06:13:28;101806.16;;;26.58;33.85
72061;BME280;59925;52.136;5.420;2023-06-14T06:15:54;101799.91;;;26.77;32.83
72061;BME280;59925;52.136;5.420;2023-06-14T06:18:22;101804.72;;;26.64;33.98
72061;BME280;59925;52.136;5.420;2023-06-14T06:20:49;101809.75;;;26.94;32.76
72061;BME280;59925;52.136;5.420;2023-06-14T06:23:16;101805.44;;;27.13;32.87
72061;BME280;59925;52.136;5.420;2023-06-14T06:25:43;101809.56;;;27.22;32.23
72061;BME280;59925;52.136;5.420;2023-06-14T06:28:09;101805.41;;;26.61;32.11
72061;BME280;59925;52.136;5.420;2023-06-14T06:30:37;101806.44;;;26.37;33.34
72061;BME280;59925;52.136;5.420;2023-06-14T06:33:04;101817.13;;;26.42;32.86
72061;BME280;59925;52.136;5.420;2023-06-14T06:35:31;101809.00;;;26.45;32.98
72061;BME280;59925;52.136;5.420;2023-06-14T06:38:00;101815.72;;;26.64;32.89
72061;BME280;59925;52.136;5.420;2023-06-14T06:40:27;101819.78;;;26.70;32.92
72061;BME280;59925;52.136;5.420;2023-06-14T06:42:54;101823.84;;;26.76;32.13
72061;BME280;59925;52.136;5.420;2023-06-14T06:45:21;101817.22;;;26.61;32.17
72061;BME280;59925;52.136;5.420;2023-06-14T06:47:51;101822.19;;;26.56;32.68
72061;BME280;59925;52.136;5.420;2023-06-14T06:50:18;101828.75;;;26.35;32.66
72061;BME280;59925;52.136;5.420;2023-06-14T06:52:46;101827.16;;;26.34;32.52
72061;BME280;59925;52.136;5.420;2023-06-14T06:55:13;101826.53;;;26.25;32.86
72061;BME280;59925;52.136;5.420;2023-06-14T06:57:40;101831.66;;;26.10;32.92
72061;BME280;59925;52.136;5.420;2023-06-14T07:00:07;101837.88;;;25.95;33.73
72061;BME280;59925;52.136;5.420;2023-06-14T07:02:36;101836.75;;;25.96;33.73
72061;BME280;59925;52.136;5.420;2023-06-14T07:05:03;101838.50;;;26.16;33.25
72061;BME280;59925;52.136;5.420;2023-06-14T07:07:30;101841.03;;;26.09;32.58
72061;BME280;59925;52.136;5.420;2023-06-14T07:09:57;101843.06;;;25.96;32.96
72061;BME280;59925;52.136;5.420;2023-06-14T07:12:23;101840.09;;;25.89;33.54
72061;BME280;59925;52.136;5.420;2023-06-14T07:14:50;101842.41;;;25.59;33.74
72061;BME280;59925;52.136;5.420;2023-06-14T07:17:17;101849.72;;;24.89;34.72
72061;BME280;59925;52.136;5.420;2023-06-14T07:19:43;101850.69;;;24.47;35.92
72061;BME280;59925;52.136;5.420;2023-06-14T07:22:10;101850.59;;;24.10;36.02
72061;BME280;59925;52.136;5.420;2023-06-14T07:24:36;101852.06;;;24.07;36.70
72061;BME280;59925;52.136;5.420;2023-06-14T07:27:03;101857.56;;;23.86;37.03
72061;BME280;59925;52.136;5.420;2023-06-14T07:29:30;101862.03;;;23.69;36.02
72061;BME280;59925;52.136;5.420;2023-06-14T07:31:57;101855.06;;;23.60;36.61
72061;BME280;59925;52.136;5.420;2023-06-14T07:34:23;101864.53;;;23.41;37.28
72061;BME280;59925;52.136;5.420;2023-06-14T07:36:50;101856.13;;;23.46;37.11
72061;BME280;59925;52.136;5.420;2023-06-14T07:39:17;101855.13;;;23.51;38.09
72061;BME280;59925;52.136;5.420;2023-06-14T07:41:44;101858.44;;;23.78;37.18
72061;BME280;59925;52.136;5.420;2023-06-14T07:44:10;101864.72;;;23.78;35.90
72061;BME280;59925;52.136;5.420;2023-06-14T07:46:38;101859.22;;;23.78;35.70
72061;BME280;59925;52.136;5.420;2023-06-14T07:49:05;101857.03;;;23.71;36.75
72061;BME280;59925;52.136;5.420;2023-06-14T07:51:32;101867.50;;;23.69;36.58
72061;BME280;59925;52.136;5.420;2023-06-14T07:53:59;101861.13;;;23.65;36.76
72061;BME280;59925;52.136;5.420;2023-06-14T07:56:29;101871.41;;;23.68;35.80
72061;BME280;59925;52.136;5.420;2023-06-14T07:58:56;101871.13;;;23.82;36.63
72061;BME280;59925;52.136;5.420;2023-06-14T08:01:23;101872.31;;;23.72;35.55
72061;BME280;59925;52.136;5.420;2023-06-14T08:03:51;101876.41;;;23.87;36.02
72061;BME280;59925;52.136;5.420;2023-06-14T08:06:18;101876.53;;;23.91;34.83
72061;BME280;59925;52.136;5.420;2023-06-14T08:08:45;101876.13;;;24.01;35.09
72061;BME280;59925;52.136;5.420;2023-06-14T08:11:11;101876.06;;;24.10;34.41
72061;BME280;59925;52.136;5.420;2023-06-14T08:13:38;101880.06;;;24.13;34.26
72061;BME280;59925;52.136;5.420;2023-06-14T08:16:04;101883.06;;;24.20;35.15
72061;BME280;59925;52.136;5.420;2023-06-14T08:18:31;101879.78;;;24.39;33.85
72061;BME280;59925;52.136;5.420;2023-06-14T08:20:58;101872.03;;;24.41;33.39
72061;BME280;59925;52.136;5.420;2023-06-14T08:23:25;101869.41;;;24.45;33.97
72061;BME280;59925;52.136;5.420;2023-06-14T08:25:51;101877.34;;;24.71;34.85
72061;BME280;59925;52.136;5.420;2023-06-14T08:28:20;101876.31;;;24.88;33.98
72061;BME280;59925;52.136;5.420;2023-06-14T08:30:47;101872.00;;;25.00;32.73
72061;BME280;59925;52.136;5.420;2023-06-14T08:33:13;101869.59;;;24.98;31.95
72061;BME280;59925;52.136;5.420;2023-06-14T08:35:43;101871.06;;;25.08;33.66
72061;BME280;59925;52.136;5.420;2023-06-14T08:38:10;101881.78;;;25.38;33.24
72061;BME280;59925;52.136;5.420;2023-06-14T08:40:39;101877.06;;;25.51;31.96
72061;BME280;59925;52.136;5.420;2023-06-14T08:43:07;101879.78;;;25.63;32.45
72061;BME280;59925;52.136;5.420;2023-06-14T08:45:34;101880.16;;;25.62;31.37
72061;BME280;59925;52.136;5.420;2023-06-14T08:48:01;101874.00;;;25.81;32.55
72061;BME280;59925;52.136;5.420;2023-06-14T08:50:28;101871.41;;;26.00;31.20
72061;BME280;59925;52.136;5.420;2023-06-14T08:53:00;101879.31;;;26.02;30.45
72061;BME280;59925;52.136;5.420;2023-06-14T08:55:30;101881.41;;;25.93;29.80
72061;BME280;59925;52.136;5.420;2023-06-14T08:58:01;101881.28;;;25.89;30.16
72061;BME280;59925;52.136;5.420;2023-06-14T09:00:30;101876.78;;;25.97;30.37
72061;BME280;59925;52.136;5.420;2023-06-14T09:02:57;101869.44;;;26.13;29.98
72061;BME280;59925;52.136;5.420;2023-06-14T09:05:25;101867.22;;;25.91;30.16
72061;BME280;59925;52.136;5.420;2023-06-14T09:07:53;101865.56;;;26.02;30.65
72061;BME280;59925;52.136;5.420;2023-06-14T09:10:21;101871.31;;;25.97;29.83
72061;BME280;59925;52.136;5.420;2023-06-14T09:12:49;101876.88;;;26.13;29.85
72061;BME280;59925;52.136;5.420;2023-06-14T09:15:15;101877.16;;;26.24;30.70
72061;BME280;59925;52.136;5.420;2023-06-14T09:17:44;101884.00;;;26.62;30.49
72061;BME280;59925;52.136;5.420;2023-06-14T09:20:11;101875.59;;;26.55;29.11
72061;BME280;59925;52.136;5.420;2023-06-14T09:22:45;101884.91;;;26.82;29.34
72061;BME280;59925;52.136;5.420;2023-06-14T09:25:12;101872.94;;;26.90;28.92
72061;BME280;59925;52.136;5.420;2023-06-14T09:28:01;101875.59;;;27.03;27.99
72061;BME280;59925;52.136;5.420;2023-06-14T09:30:28;101889.75;;;27.21;28.42
72061;BME280;59925;52.136;5.420;2023-06-14T09:32:55;101886.06;;;27.33;29.37
72061;BME280;59925;52.136;5.420;2023-06-14T09:35:23;101885.59;;;27.47;27.19
72061;BME280;59925;52.136;5.420;2023-06-14T09:37:49;101894.97;;;27.62;28.23
72061;BME280;59925;52.136;5.420;2023-06-14T09:40:20;101895.19;;;27.37;26.80
72061;BME280;59925;52.136;5.420;2023-06-14T09:42:48;101890.81;;;27.16;26.26
72061;BME280;59925;52.136;5.420;2023-06-14T09:45:16;101882.03;;;27.11;26.35
72061;BME280;59925;52.136;5.420;2023-06-14T09:47:49;101874.63;;;27.31;28.34
72061;BME280;59925;52.136;5.420;2023-06-14T09:50:32;101878.38;;;27.58;27.26
72061;BME280;59925;52.136;5.420;2023-06-14T09:53:06;101869.38;;;27.61;29.45
72061;BME280;59925;52.136;5.420;2023-06-14T09:55:37;101873.75;;;27.62;27.69
72061;BME280;59925;52.136;5.420;2023-06-14T09:58:06;101875.13;;;27.72;28.27
72061;BME280;59925;52.136;5.420;2023-06-14T10:00:34;101878.41;;;28.01;28.93
72061;BME280;59925;52.136;5.420;2023-06-14T10:03:05;101876.25;;;27.91;26.96
72061;BME280;59925;52.136;5.420;2023-06-14T10:05:35;101874.22;;;27.88;27.36
72061;BME280;59925;52.136;5.420;2023-06-14T10:08:14;101876.00;;;28.19;26.74
72061;BME280;59925;52.136;5.420;2023-06-14T10:10:43;101865.41;;;28.21;27.20
72061;BME280;59925;52.136;5.420;2023-06-14T10:13:11;101864.22;;;28.42;27.26
72061;BME280;59925;52.136;5.420;2023-06-14T10:15:41;101859.94;;;28.71;28.51
72061;BME280;59925;52.136;5.420;2023-06-14T10:20:51;101866.78;;;28.78;25.27
72061;BME280;59925;52.136;5.420;2023-06-14T10:23:22;101866.03;;;28.57;26.39
72061;BME280;59925;52.136;5.420;2023-06-14T10:25:56;101869.19;;;28.59;26.33
72061;BME280;59925;52.136;5.420;2023-06-14T10:28:23;101863.81;;;28.67;26.02
72061;BME280;59925;52.136;5.420;2023-06-14T10:31:11;101872.44;;;28.88;26.30
72061;BME280;59925;52.136;5.420;2023-06-14T10:33:48;101867.25;;;29.10;27.92
72061;BME280;59925;52.136;5.420;2023-06-14T10:39:06;101858.63;;;29.76;26.03
72061;BME280;59925;52.136;5.420;2023-06-14T10:41:36;101871.47;;;29.61;25.53
72061;BME280;59925;52.136;5.420;2023-06-14T10:46:59;101850.72;;;29.78;26.91
72061;BME280;59925;52.136;5.420;2023-06-14T10:52:21;101869.72;;;29.80;26.76
72061;BME280;59925;52.136;5.420;2023-06-14T10:55:14;101877.25;;;30.21;26.81
72061;BME280;59925;52.136;5.420;2023-06-14T10:57:43;101866.84;;;30.03;24.71
72061;BME280;59925;52.136;5.420;2023-06-14T11:00:19;101862.66;;;30.24;25.71
72061;BME280;59925;52.136;5.420;2023-06-14T11:03:29;101861.53;;;30.28;25.30
72061;BME280;59925;52.136;5.420;2023-06-14T11:05:58;101853.75;;;30.45;25.35
72061;BME280;59925;52.136;5.420;2023-06-14T11:10:59;101856.78;;;30.29;25.36
72061;BME280;59925;52.136;5.420;2023-06-14T11:13:27;101849.78;;;30.42;25.54
72061;BME280;59925;52.136;5.420;2023-06-14T11:15:57;101863.91;;;30.30;25.31
72061;BME280;59925;52.136;5.420;2023-06-14T11:18:24;101864.50;;;30.09;24.60
72061;BME280;59925;52.136;5.420;2023-06-14T11:20:54;101852.78;;;30.23;25.94
72061;BME280;59925;52.136;5.420;2023-06-14T11:23:21;101853.91;;;30.63;26.29
72061;BME280;59925;52.136;5.420;2023-06-14T11:25:52;101849.59;;;30.66;24.58
72061;BME280;59925;52.136;5.420;2023-06-14T11:28:19;101866.66;;;30.75;25.74
72061;BME280;59925;52.136;5.420;2023-06-14T11:30:48;101850.44;;;30.73;24.21
72061;BME280;59925;52.136;5.420;2023-06-14T11:33:18;101851.97;;;30.67;23.24
72061;BME280;59925;52.136;5.420;2023-06-14T11:35:45;101840.53;;;30.72;24.95
72061;BME280;59925;52.136;5.420;2023-06-14T11:38:12;101848.59;;;30.96;24.79
72061;BME280;59925;52.136;5.420;2023-06-14T11:40:39;101843.53;;;31.09;24.52
72061;BME280;59925;52.136;5.420;2023-06-14T11:43:06;101842.31;;;31.06;24.93
72061;BME280;59925;52.136;5.420;2023-06-14T11:45:32;101837.59;;;31.07;24.14
72061;BME280;59925;52.136;5.420;2023-06-14T11:47:59;101841.22;;;31.18;24.83
72061;BME280;59925;52.136;5.420;2023-06-14T11:50:27;101836.16;;;31.42;25.51
72061;BME280;59925;52.136;5.420;2023-06-14T11:52:55;101825.13;;;31.56;24.57
72061;BME280;59925;52.136;5.420;2023-06-14T11:55:23;101838.22;;;31.67;23.76
72061;BME280;59925;52.136;5.420;2023-06-14T11:57:50;101842.56;;;31.60;22.46
72061;BME280;59925;52.136;5.420;2023-06-14T12:00:17;101841.88;;;30.97;22.86
72061;BME280;59925;52.136;5.420;2023-06-14T12:02:52;101843.44;;;30.94;24.29
72061;BME280;59925;52.136;5.420;2023-06-14T12:05:22;101838.28;;;30.93;24.48
72061;BME280;59925;52.136;5.420;2023-06-14T12:07:50;101837.94;;;31.01;24.37
72061;BME280;59925;52.136;5.420;2023-06-14T12:10:16;101839.72;;;31.35;24.33
72061;BME280;59925;52.136;5.420;2023-06-14T12:12:43;101836.69;;;31.80;23.56
72061;BME280;59925;52.136;5.420;2023-06-14T12:15:11;101835.19;;;32.26;23.10
72061;BME280;59925;52.136;5.420;2023-06-14T12:17:39;101840.28;;;32.02;22.90
72061;BME280;59925;52.136;5.420;2023-06-14T12:20:09;101848.56;;;31.77;23.00
72061;BME280;59925;52.136;5.420;2023-06-14T12:25:48;101841.13;;;32.28;23.22
72061;BME280;59925;52.136;5.420;2023-06-14T12:28:15;101828.06;;;32.47;23.99
72061;BME280;59925;52.136;5.420;2023-06-14T12:30:41;101825.69;;;32.38;22.33
72061;BME280;59925;52.136;5.420;2023-06-14T12:33:08;101843.88;;;32.14;22.25
72061;BME280;59925;52.136;5.420;2023-06-14T12:35:35;101839.13;;;32.14;23.01
72061;BME280;59925;52.136;5.420;2023-06-14T12:38:01;101838.75;;;32.34;22.38
72061;BME280;59925;52.136;5.420;2023-06-14T12:40:30;101839.94;;;32.54;22.94
72061;BME280;59925;52.136;5.420;2023-06-14T12:42:56;101834.38;;;32.33;22.50
72061;BME280;59925;52.136;5.420;2023-06-14T12:45:23;101833.22;;;32.41;22.58
72061;BME280;59925;52.136;5.420;2023-06-14T12:47:49;101830.38;;;32.77;23.79
72061;BME280;59925;52.136;5.420;2023-06-14T12:50:16;101835.53;;;32.75;21.26
72061;BME280;59925;52.136;5.420;2023-06-14T12:52:43;101824.06;;;32.55;22.94
72061;BME280;59925;52.136;5.420;2023-06-14T12:55:10;101833.19;;;32.59;21.44
72061;BME280;59925;52.136;5.420;2023-06-14T12:57:36;101837.91;;;32.62;21.31
72061;BME280;59925;52.136;5.420;2023-06-14T13:00:04;101848.97;;;33.02;23.15
72061;BME280;59925;52.136;5.420;2023-06-14T13:02:33;101843.00;;;33.04;21.38
72061;BME280;59925;52.136;5.420;2023-06-14T13:05:00;101855.75;;;32.94;21.68
72061;BME280;59925;52.136;5.420;2023-06-14T13:07:28;101852.56;;;32.92;21.24
72061;BME280;59925;52.136;5.420;2023-06-14T13:09:54;101838.38;;;32.39;20.84
72061;BME280;59925;52.136;5.420;2023-06-14T13:12:21;101838.75;;;32.34;21.27
72061;BME280;59925;52.136;5.420;2023-06-14T13:14:47;101851.00;;;32.65;21.34